Decoded Metar for LFBM (MONT-DE-MARSAN in FRANCE) (IATA:N/A) | Meteo·Mobile Aviation Weather
aviador You're here:

LFBM Decoded Metar

MONT-DE-MARSAN in FRANCE
Report Time2019-04-20 10:00:00
UTC Time2019-04-20 10:14:22
Flight Rules vfr VFR
Wind090° at 09 kt
W.Decomp.*RWY 09: 9.0 kt HW -0 kt LCW
Visibility9999 m
Phenomena:N/A
Clouds:N/A
Expected CloudBase > 5,200 ft AGL from Temp-Dew spread
CeilingNone
Temp20°C (ISA +5)
Dew Point07°C (43% RH)
AAT16.1°C
QNH1022 hPa
Density Alt676 ft
Elevation207 ft
Report Wrong Elevation
Raw Report
LFBM 201000Z AUTO 09009KT 050V120 CAVOK 20/07 Q1022 BECMG
09050KT=

Extra information for LFBM:More info

Metar Taf Metar & Taf Last 4 Metars F.Rules Stats Wind Profile Meteogram Temp Stats Airport Information Weather charts Add Link Nearby VenuesMetar ALERT Operation Metar Decoded Social comments